Time;durP1;ratioP1;P1;durP2;ratioP2;P2;SDS_P1;SDS_P2;PMS_P1;PMS_P2;Temp;Humidity;BMP_temperature;BMP_pressure;BME280_temperature;BME280_humidity;BME280_pressure;Samples;Min_cycle;Max_cycle;Signal;HPM_P1;HPM_P2
2022/11/14 00:00:45;;;;;;;27.30;16.23;;;;;;;5.31;96.37;101290.78;5089640;28;20115;-29
2022/11/14 00:03:12;;;;;;;34.63;19.23;;;;;;;5.00;97.89;101282.44;5071102;28;20043;-30
2022/11/14 00:05:40;;;;;;;32.35;19.65;;;;;;;5.51;97.37;101295.88;5089443;28;20052;-33
2022/11/14 00:08:05;;;;;;;28.15;18.52;;;;;;;5.19;98.52;101271.69;5071041;28;20032;-30
2022/11/14 00:10:31;;;;;;;28.80;16.70;;;;;;;5.51;98.75;101294.06;5070791;28;20407;-32
2022/11/14 00:12:56;;;;;;;28.73;16.45;;;;;;;5.86;98.80;101286.97;5089531;28;20028;-32
2022/11/14 00:15:21;;;;;;;29.85;15.82;;;;;;;5.76;99.30;101271.22;5089062;28;20077;-32
2022/11/14 00:17:47;;;;;;;30.10;16.65;;;;;;;5.90;98.51;101287.50;5089276;28;20043;-30
2022/11/14 00:20:12;;;;;;;26.50;14.77;;;;;;;5.88;97.71;101282.34;5089107;28;20024;-30
2022/11/14 00:22:38;;;;;;;28.38;15.60;;;;;;;5.75;98.04;101289.91;5089237;28;20111;-29
2022/11/14 00:25:04;;;;;;;30.45;15.85;;;;;;;5.68;98.59;101288.84;5089167;28;20481;-34
2022/11/14 00:27:29;;;;;;;28.15;15.20;;;;;;;5.67;98.17;101276.63;5089308;28;20035;-28
2022/11/14 00:29:55;;;;;;;29.85;16.08;;;;;;;5.47;99.57;101282.13;5089468;28;20024;-29
2022/11/14 00:32:21;;;;;;;28.80;15.65;;;;;;;5.47;99.73;101276.00;5088948;28;20067;-31
2022/11/14 00:34:47;;;;;;;38.08;16.45;;;;;;;5.61;98.98;101268.31;5070742;28;20028;-32
2022/11/14 00:37:13;;;;;;;43.13;15.18;;;;;;;5.77;97.64;101270.22;5088863;28;20101;-30
2022/11/14 00:39:39;;;;;;;38.22;15.75;;;;;;;5.68;96.55;101279.13;5070571;28;20036;-30
2022/11/14 00:42:04;;;;;;;31.83;14.95;;;;;;;5.62;95.79;101272.63;5088898;28;20097;-32
2022/11/14 00:44:30;;;;;;;27.92;15.18;;;;;;;5.56;95.26;101248.63;5088403;28;20020;-29
2022/11/14 00:46:55;;;;;;;23.52;14.73;;;;;;;5.74;93.91;101267.06;5088049;28;20054;-30
2022/11/14 00:49:20;;;;;;;25.17;15.25;;;;;;;5.28;95.05;101253.25;5088492;28;20067;-30
2022/11/14 00:51:46;;;;;;;23.13;13.13;;;;;;;5.09;96.63;101265.66;5088244;28;20498;-29
2022/11/14 00:54:11;;;;;;;25.13;14.90;;;;;;;5.02;98.83;101275.19;5070254;28;20523;-28
2022/11/14 00:56:37;;;;;;;34.58;17.15;;;;;;;5.16;98.28;101271.16;5088469;28;20129;-30
2022/11/14 00:59:02;;;;;;;36.28;18.17;;;;;;;4.88;98.93;101249.28;5088477;28;20640;-28
2022/11/14 01:01:28;;;;;;;106.50;38.63;;;;;;;4.97;99.14;101269.53;5088304;28;20111;-29
2022/11/14 01:03:53;;;;;;;33.15;16.75;;;;;;;4.92;99.08;101238.25;5088437;28;20682;-30
2022/11/14 01:06:19;;;;;;;32.85;16.58;;;;;;;5.30;96.81;101248.63;5087949;28;20059;-28
2022/11/14 01:08:45;;;;;;;39.35;16.90;;;;;;;5.57;95.38;101266.97;5069818;28;20024;-28
2022/11/14 01:11:16;;;;;;;33.80;16.48;;;;;;;5.51;95.51;101245.59;5087892;28;20110;-29
2022/11/14 01:13:42;;;;;;;62.65;15.77;;;;;;;5.50;94.96;101255.38;5070132;28;20027;-29
2022/11/14 01:16:09;;;;;;;42.38;18.27;;;;;;;5.41;96.22;101245.69;5088175;28;20811;-32
2022/11/14 01:18:35;;;;;;;71.35;17.60;;;;;;;5.36;97.00;101261.22;5087932;28;20024;-34
2022/11/14 01:21:04;;;;;;;90.57;21.95;;;;;;;5.13;99.26;101250.31;5088104;28;20134;-29
2022/11/14 01:23:30;;;;;;;111.30;28.63;;;;;;;4.86;98.75;101236.22;5088113;28;20078;-30
2022/11/14 01:26:07;;;;;;;82.30;24.85;;;;;;;4.86;98.15;101224.81;5088323;28;20081;-28
2022/11/14 01:28:33;;;;;;;82.88;24.00;;;;;;;4.87;98.99;101239.72;5087571;28;20804;-29
2022/11/14 01:31:13;;;;;;;67.95;20.85;;;;;;;4.80;100.00;101240.31;5087721;28;20264;-30
2022/11/14 01:33:39;;;;;;;54.35;18.30;;;;;;;4.88;100.00;101238.72;5087904;28;20020;-29
2022/11/14 01:36:06;;;;;;;52.78;19.45;;;;;;;4.64;100.00;101213.75;5087826;28;20028;-31
2022/11/14 01:38:31;;;;;;;44.60;17.30;;;;;;;4.53;100.00;101219.25;5069249;28;20028;-29
2022/11/14 01:40:57;;;;;;;43.33;16.88;;;;;;;4.77;100.00;101210.72;5087519;28;20032;-28
2022/11/14 01:43:34;;;;;;;45.13;16.50;;;;;;;4.90;99.17;101229.63;5087538;28;20551;-29
2022/11/14 01:46:11;;;;;;;38.65;17.60;;;;;;;4.68;100.00;101230.97;5087246;28;20462;-28
2022/11/14 01:48:37;;;;;;;44.57;18.03;;;;;;;4.74;100.00;101227.72;5087936;28;20117;-28
2022/11/14 01:51:15;;;;;;;55.28;17.55;;;;;;;5.02;99.78;101209.91;5069076;28;20031;-29
2022/11/14 01:53:43;;;;;;;76.63;18.77;;;;;;;4.84;100.00;101211.75;5052756;28;20110;-29
2022/11/14 01:56:11;;;;;;;71.53;18.52;;;;;;;5.03;100.00;101231.91;5087491;28;20043;-31
2022/11/14 01:58:39;;;;;;;;;;;;;;;5.34;99.31;101234.09;5087798;28;20483;-29
2022/11/14 02:01:04;;;;;;;73.50;18.23;;;;;;;4.98;99.26;101213.03;5086954;28;20291;-31
2022/11/14 02:03:30;;;;;;;78.70;19.70;;;;;;;5.03;100.00;101237.19;5087242;28;20039;-28
2022/11/14 02:05:57;;;;;;;66.10;18.15;;;;;;;4.85;100.00;101225.81;5086949;28;20549;-28
2022/11/14 02:08:24;;;;;;;71.97;18.73;;;;;;;4.90;100.00;101228.81;5087043;28;20016;-29
2022/11/14 02:10:49;;;;;;;59.95;16.73;;;;;;;4.87;100.00;101222.03;5068483;28;20036;-29
2022/11/14 02:13:15;;;;;;;49.20;16.00;;;;;;;4.56;100.00;101224.25;5087253;28;20112;-33
2022/11/14 02:15:40;;;;;;;47.20;15.43;;;;;;;4.42;100.00;101223.78;5087038;28;20031;-30
2022/11/14 02:18:06;;;;;;;50.08;16.17;;;;;;;4.91;100.00;101206.69;5087003;28;20107;-29
2022/11/14 02:20:36;;;;;;;66.10;17.55;;;;;;;4.98;99.44;101197.16;5086663;28;20038;-28
2022/11/14 02:23:01;;;;;;;47.35;16.40;;;;;;;5.04;98.96;101222.97;5068658;28;20104;-30
2022/11/14 02:25:27;;;;;;;56.33;16.23;;;;;;;5.04;97.46;101215.88;5086729;28;20457;-33
2022/11/14 02:27:53;;;;;;;46.97;16.25;;;;;;;4.87;97.35;101203.53;5068662;28;20480;-29
2022/11/14 02:30:21;;;;;;;56.17;17.50;;;;;;;4.93;97.50;101210.84;5086936;28;20478;-31
2022/11/14 02:32:46;;;;;;;55.13;15.73;;;;;;;4.83;98.35;101218.84;5068692;28;20409;-29
2022/11/14 02:35:12;;;;;;;39.58;16.25;;;;;;;4.93;98.79;101217.94;5068810;28;20024;-34
2022/11/14 02:37:38;;;;;;;47.75;16.48;;;;;;;4.96;98.13;101215.81;5086887;28;20606;-28
2022/11/14 02:40:04;;;;;;;46.33;16.83;;;;;;;4.90;98.48;101220.88;5086781;28;20028;-28
2022/11/14 02:42:30;;;;;;;34.85;16.98;;;;;;;4.64;98.52;101221.69;5087138;28;20532;-30
2022/11/14 02:44:55;;;;;;;56.15;21.65;;;;;;;4.46;98.60;101202.34;5086829;28;20819;-30
2022/11/14 02:47:23;;;;;;;64.22;22.48;;;;;;;4.62;98.39;101218.34;5068134;28;20052;-28
2022/11/14 02:49:49;;;;;;;45.67;22.17;;;;;;;4.86;97.01;101219.53;5068295;28;20535;-30
2022/11/14 02:52:14;;;;;;;61.72;26.10;;;;;;;4.51;97.74;101223.84;5086495;28;20115;-31
2022/11/14 02:54:40;;;;;;;66.35;26.35;;;;;;;4.25;99.37;101190.28;5086333;28;20406;-31
2022/11/14 02:57:05;;;;;;;64.28;25.77;;;;;;;4.28;99.29;101221.66;5086600;28;20089;-34
2022/11/14 02:59:31;;;;;;;52.38;22.83;;;;;;;4.37;99.78;101209.34;5086937;28;20024;-31
2022/11/14 03:01:56;;;;;;;46.83;21.80;;;;;;;4.81;98.04;101206.78;5068303;28;20479;-29
2022/11/14 03:04:21;;;;;;;39.90;20.13;;;;;;;4.89;96.93;101213.94;5086301;28;20111;-34
2022/11/14 03:06:47;;;;;;;46.65;18.35;;;;;;;4.71;98.42;101209.50;5086446;28;20034;-30
2022/11/14 03:09:13;;;;;;;52.72;20.77;;;;;;;4.86;98.29;101199.22;5086453;28;20025;-29
2022/11/14 03:11:38;;;;;;;45.78;20.17;;;;;;;4.64;98.95;101211.13;5086470;28;20030;-28
2022/11/14 03:14:04;;;;;;;45.45;20.05;;;;;;;4.41;100.00;101216.00;5086528;28;20027;-29
2022/11/14 03:16:30;;;;;;;34.63;17.35;;;;;;;4.66;100.00;101214.44;5086188;28;20020;-30
2022/11/14 03:18:56;;;;;;;26.95;15.32;;;;;;;4.53;99.97;101221.91;5086459;28;20052;-28
2022/11/14 03:21:22;;;;;;;29.52;14.95;;;;;;;4.37;100.00;101219.91;5051358;28;20131;-30
2022/11/14 03:23:48;;;;;;;32.35;14.57;;;;;;;4.16;100.00;101201.72;5086410;28;20032;-30
2022/11/14 03:26:14;;;;;;;30.55;16.05;;;;;;;4.29;100.00;101217.19;5085947;28;20024;-30
2022/11/14 03:28:40;;;;;;;36.20;15.18;;;;;;;4.21;100.00;101225.88;5086525;28;20028;-28
2022/11/14 03:31:07;;;;;;;30.17;15.30;;;;;;;4.61;100.00;101216.69;5068031;28;20032;-29
2022/11/14 03:33:34;;;;;;;34.05;14.98;;;;;;;4.46;98.71;101186.50;5088660;28;20035;-29
2022/11/14 03:36:00;;;;;;;33.60;14.85;;;;;;;4.34;100.00;101199.94;5089945;28;20043;-28
2022/11/14 03:38:26;;;;;;;33.72;15.70;;;;;;;4.53;100.00;101219.25;5071263;28;20035;-29
2022/11/14 03:40:52;;;;;;;37.05;16.85;;;;;;;4.62;100.00;101223.63;5089996;28;20773;-30
2022/11/14 03:43:18;;;;;;;45.97;17.48;;;;;;;4.71;100.00;101212.16;5071358;28;20032;-30
2022/11/14 03:45:45;;;;;;;38.17;15.65;;;;;;;4.71;100.00;101213.97;5071053;28;20032;-28
2022/11/14 03:48:11;;;;;;;43.42;17.67;;;;;;;4.64;100.00;101216.41;5070748;28;20048;-35
2022/11/14 03:50:36;;;;;;;34.40;14.95;;;;;;;4.38;99.77;101189.91;5089735;28;20086;-30
2022/11/14 03:53:02;;;;;;;32.30;14.75;;;;;;;4.46;99.68;101212.94;5089564;28;20093;-29
2022/11/14 03:55:27;;;;;;;35.92;15.32;;;;;;;4.68;99.31;101204.53;5089686;28;20029;-32
2022/11/14 03:57:52;;;;;;;43.20;18.15;;;;;;;4.79;98.97;101209.56;5089822;28;20031;-28
2022/11/14 04:00:18;;;;;;;38.92;17.80;;;;;;;4.74;98.56;101189.88;5089482;28;20121;-31
2022/11/14 04:02:44;;;;;;;62.63;20.92;;;;;;;4.81;98.38;101214.72;5089559;28;20082;-32
2022/11/14 04:05:09;;;;;;;86.03;24.77;;;;;;;4.80;98.57;101192.75;5089326;28;20024;-33
2022/11/14 04:07:35;;;;;;;115.60;31.42;;;;;;;4.71;98.62;101212.16;5089342;28;20028;-28
2022/11/14 04:10:00;;;;;;;105.70;31.27;;;;;;;4.66;99.09;101225.00;5089963;28;20024;-30
2022/11/14 04:12:26;;;;;;;82.07;27.33;;;;;;;4.48;99.52;101214.44;5089265;28;20832;-29
2022/11/14 04:14:51;;;;;;;72.63;26.40;;;;;;;4.61;98.88;101216.69;5089281;28;20422;-30
2022/11/14 04:17:17;;;;;;;85.30;23.23;;;;;;;4.49;100.00;101224.00;5070856;28;20035;-30
2022/11/14 04:19:42;;;;;;;67.28;20.95;;;;;;;3.92;100.00;101203.09;5089438;28;20407;-31
2022/11/14 04:22:08;;;;;;;66.93;21.23;;;;;;;4.08;100.00;101233.31;5070434;28;20028;-29
2022/11/14 04:24:33;;;;;;;81.93;26.45;;;;;;;3.99;100.00;101225.31;5088949;28;20047;-31
2022/11/14 04:26:58;;;;;;;78.85;22.33;;;;;;;4.37;100.00;101235.75;5088904;28;20036;-31
2022/11/14 04:29:24;;;;;;;67.28;19.95;;;;;;;4.36;100.00;101229.66;5088964;28;20486;-29
2022/11/14 04:31:49;;;;;;;110.20;29.90;;;;;;;4.37;100.00;101204.94;5089027;28;20039;-28
2022/11/14 04:34:15;;;;;;;101.47;30.27;;;;;;;4.35;100.00;101238.56;5070325;28;20060;-30
2022/11/14 04:36:41;;;;;;;114.35;31.85;;;;;;;4.24;100.00;101199.16;5088801;28;20058;-28
2022/11/14 04:39:06;;;;;;;149.38;40.63;;;;;;;4.28;100.00;101211.09;5088754;28;20024;-29
2022/11/14 04:41:31;;;;;;;216.60;64.35;;;;;;;4.00;100.00;101213.78;5088799;28;20114;-29
2022/11/14 04:43:57;;;;;;;127.22;38.83;;;;;;;4.31;100.00;101231.06;5088717;28;20618;-30
2022/11/14 04:46:22;;;;;;;49.40;20.95;;;;;;;4.29;100.00;101207.47;5088321;28;20036;-30
2022/11/14 04:48:48;;;;;;;45.88;19.45;;;;;;;4.25;99.03;101232.53;5070381;28;20145;-28
2022/11/14 04:51:13;;;;;;;67.15;20.08;;;;;;;4.28;99.88;101216.38;5088721;28;20024;-31
2022/11/14 04:53:38;;;;;;;58.10;20.38;;;;;;;4.03;100.00;101225.84;5088939;28;20031;-30
2022/11/14 04:56:04;;;;;;;66.05;20.83;;;;;;;3.88;100.00;101208.81;5088871;28;20039;-29
2022/11/14 04:58:30;;;;;;;70.65;23.33;;;;;;;4.13;100.00;101249.56;5088405;28;20944;-29
2022/11/14 05:00:58;;;;;;;77.30;26.05;;;;;;;3.86;100.00;101211.59;5088405;28;20028;-29
2022/11/14 05:03:24;;;;;;;82.93;29.10;;;;;;;3.83;100.00;101240.94;5088362;28;20028;-29
2022/11/14 05:05:50;;;;;;;64.40;25.30;;;;;;;3.83;100.00;101222.47;5087867;28;20039;-29
2022/11/14 05:08:15;;;;;;;47.75;19.35;;;;;;;3.86;100.00;101232.72;5069854;28;20016;-31
2022/11/14 05:10:45;;;;;;;40.08;16.30;;;;;;;4.05;100.00;101237.09;5088188;28;20028;-29
2022/11/14 05:13:11;;;;;;;40.22;15.93;;;;;;;4.12;100.00;101247.88;5088325;28;20028;-32
2022/11/14 05:15:37;;;;;;;35.60;16.77;;;;;;;4.03;100.00;101250.41;5088181;28;20032;-28
2022/11/14 05:18:02;;;;;;;38.00;15.55;;;;;;;4.12;99.69;101263.72;5087966;28;20031;-31
2022/11/14 05:20:27;;;;;;;44.92;16.40;;;;;;;4.12;100.00;101259.25;5087935;28;20035;-29
2022/11/14 05:22:54;;;;;;;35.85;16.20;;;;;;;3.95;100.00;101247.69;5088101;28;20031;-35
2022/11/14 05:25:20;;;;;;;36.45;15.23;;;;;;;3.93;100.00;101239.09;5053233;28;20038;-30
2022/11/14 05:27:46;;;;;;;30.85;15.85;;;;;;;3.74;99.20;101233.88;5069384;28;20024;-30
2022/11/14 05:30:12;;;;;;;26.45;13.82;;;;;;;3.54;100.00;101255.06;5072519;28;20097;-29
2022/11/14 05:32:37;;;;;;;34.78;15.18;;;;;;;3.40;100.00;101259.00;5067348;28;20035;-28
2022/11/14 05:35:03;;;;;;;42.55;15.85;;;;;;;3.62;100.00;101260.47;5067587;28;20089;-29
2022/11/14 05:37:29;;;;;;;41.88;16.73;;;;;;;3.80;100.00;101259.69;5049630;28;20028;-29
2022/11/14 05:39:54;;;;;;;50.75;17.23;;;;;;;3.63;100.00;101251.56;5067379;28;20036;-31
2022/11/14 05:42:19;;;;;;;40.58;15.93;;;;;;;3.72;100.00;101268.34;5067362;28;20137;-29
2022/11/14 05:44:45;;;;;;;51.65;19.02;;;;;;;3.85;100.00;101246.91;5067437;28;20025;-29
2022/11/14 05:47:10;;;;;;;29.63;13.57;;;;;;;4.00;98.88;101274.50;5066900;28;20052;-30
2022/11/14 05:49:35;;;;;;;30.73;13.90;;;;;;;3.68;100.00;101274.03;5067018;28;20512;-30
2022/11/14 05:52:01;;;;;;;27.88;12.90;;;;;;;4.00;99.75;101269.22;5067414;28;20025;-29
2022/11/14 05:54:26;;;;;;;29.75;13.30;;;;;;;4.27;97.83;101271.97;5066817;28;20025;-30
2022/11/14 05:56:52;;;;;;;29.25;14.18;;;;;;;4.20;98.27;101263.81;5066548;28;20039;-28
2022/11/14 05:59:17;;;;;;;26.33;12.77;;;;;;;4.42;97.36;101276.59;5067456;28;20451;-29
2022/11/14 06:01:42;;;;;;;22.67;11.68;;;;;;;3.98;98.03;101250.06;5066952;28;20381;-28
2022/11/14 06:04:08;;;;;;;25.38;12.70;;;;;;;4.23;96.72;101259.06;5066768;28;20021;-31
2022/11/14 06:06:33;;;;;;;21.27;12.18;;;;;;;4.39;97.53;101258.44;5065388;28;20037;-28
2022/11/14 06:08:59;;;;;;;24.13;13.43;;;;;;;4.59;96.14;101261.75;5066965;28;20514;-30
2022/11/14 06:11:24;;;;;;;30.83;15.55;;;;;;;4.38;96.15;101269.13;5066863;28;20115;-33
2022/11/14 06:13:49;;;;;;;34.97;16.05;;;;;;;4.40;95.75;101252.16;5066772;28;20407;-29
2022/11/14 06:16:17;;;;;;;28.58;16.15;;;;;;;4.57;96.65;101273.44;5065157;28;20029;-33
2022/11/14 06:18:43;;;;;;;32.93;16.57;;;;;;;4.38;95.26;101248.81;5048580;28;20033;-30
2022/11/14 06:21:17;;;;;;;32.95;17.70;;;;;;;4.63;96.49;101278.13;5048870;28;20052;-33
2022/11/14 06:23:43;;;;;;;45.22;20.13;;;;;;;4.53;98.12;101272.91;5066670;28;20020;-29
2022/11/14 06:26:19;;;;;;;100.63;40.78;;;;;;;4.66;97.90;101275.22;5066948;28;20021;-28
2022/11/14 06:28:45;;;;;;;89.80;35.95;;;;;;;4.80;96.51;101269.38;5048552;28;20411;-31
2022/11/14 06:31:10;;;;;;;76.90;33.38;;;;;;;4.68;95.09;101257.38;5066550;28;20483;-34
2022/11/14 06:33:36;;;;;;;87.22;33.85;;;;;;;4.67;97.09;101279.50;5066611;28;20813;-28
2022/11/14 06:36:06;;;;;;;46.78;18.92;;;;;;;4.80;96.12;101274.69;5048586;28;20033;-29
2022/11/14 06:38:33;;;;;;;29.63;12.40;;;;;;;4.85;97.21;101279.50;5048232;28;20033;-28
2022/11/14 06:41:06;;;;;;;24.52;12.27;;;;;;;4.61;97.47;101280.09;5066618;28;20164;-28
2022/11/14 06:43:36;;;;;;;29.00;15.20;;;;;;;4.93;97.31;101284.03;5048102;28;20407;-32
2022/11/14 06:46:03;;;;;;;35.35;13.80;;;;;;;4.88;97.26;101259.84;5048120;28;20039;-31
2022/11/14 06:48:30;;;;;;;22.60;13.43;;;;;;;4.82;96.00;101262.16;5066378;28;20122;-28
2022/11/14 06:50:57;;;;;;;33.20;12.60;;;;;;;4.62;99.01;101250.06;5048343;28;20411;-29
2022/11/14 06:53:23;;;;;;;32.13;11.90;;;;;;;4.93;98.19;101273.47;5066697;28;21123;-27
2022/11/14 06:55:57;;;;;;;38.75;14.48;;;;;;;5.14;97.10;101260.72;5066533;28;20035;-28
2022/11/14 06:58:25;;;;;;;44.25;12.95;;;;;;;5.24;96.39;101271.22;5066006;28;20028;-28
2022/11/14 07:00:50;;;;;;;29.75;12.75;;;;;;;4.79;97.92;101267.72;5066434;28;20033;-31
2022/11/14 07:03:16;;;;;;;23.40;11.65;;;;;;;5.12;98.28;101268.00;5066407;28;20039;-30
2022/11/14 07:05:41;;;;;;;29.35;12.00;;;;;;;5.15;97.96;101246.53;5066302;28;20060;-31
2022/11/14 07:08:07;;;;;;;38.58;13.13;;;;;;;5.19;99.10;101262.91;5067786;28;20115;-28
2022/11/14 07:10:32;;;;;;;38.97;13.73;;;;;;;5.47;98.95;101260.94;5069994;28;20527;-30
2022/11/14 07:12:58;;;;;;;42.03;14.88;;;;;;;5.17;100.00;101228.72;5070113;28;20027;-29
2022/11/14 07:15:23;;;;;;;66.78;14.98;;;;;;;5.49;99.51;101240.47;5070310;28;20059;-29
2022/11/14 07:17:49;;;;;;;36.25;16.08;;;;;;;5.74;99.21;101269.69;5070444;28;20052;-28
2022/11/14 07:20:17;;;;;;;49.03;18.65;;;;;;;5.37;100.00;101245.22;5069929;28;20028;-28
2022/11/14 07:22:44;;;;;;;42.65;16.63;;;;;;;5.84;99.12;101247.44;5052001;28;20033;-31
2022/11/14 07:25:10;;;;;;;66.05;17.52;;;;;;;5.87;98.12;101241.00;5070276;28;20063;-29
2022/11/14 07:27:35;;;;;;;48.38;18.75;;;;;;;5.75;100.00;101236.97;5069575;28;20033;-33
2022/11/14 07:30:00;;;;;;;88.38;18.17;;;;;;;5.86;98.10;101260.50;5070406;28;20043;-29
2022/11/14 07:32:26;;;;;;;58.78;16.67;;;;;;;5.76;100.00;101260.66;5069943;28;20036;-29
2022/11/14 07:34:51;;;;;;;112.70;19.65;;;;;;;5.68;100.00;101235.94;5070027;28;20504;-33
2022/11/14 07:37:16;;;;;;;85.68;19.70;;;;;;;5.92;100.00;101251.91;5069745;28;20086;-29
2022/11/14 07:39:42;;;;;;;45.03;17.40;;;;;;;6.08;100.00;101239.78;5051869;28;20031;-34
2022/11/14 07:42:07;;;;;;;75.97;20.33;;;;;;;6.39;99.14;101255.91;5069553;28;20471;-30
2022/11/14 07:44:33;;;;;;;56.25;20.55;;;;;;;6.46;100.00;101266.69;5069303;28;20039;-29
2022/11/14 07:46:58;;;;;;;80.78;21.33;;;;;;;6.87;99.83;101261.47;5069205;28;20052;-33
2022/11/14 07:49:23;;;;;;;56.63;19.70;;;;;;;6.74;97.88;101238.94;5069692;28;20452;-29
2022/11/14 07:51:49;;;;;;;64.15;20.65;;;;;;;6.80;100.00;101263.94;5069625;28;20024;-29
2022/11/14 07:54:14;;;;;;;63.95;22.45;;;;;;;6.78;100.00;101261.47;5069265;28;20174;-29
2022/11/14 07:56:39;;;;;;;61.38;25.42;;;;;;;6.93;100.00;101231.63;5067686;28;20129;-32
2022/11/14 07:59:05;;;;;;;51.67;24.50;;;;;;;7.29;99.18;101249.84;5069427;28;20086;-32
2022/11/14 08:01:30;;;;;;;61.22;23.92;;;;;;;7.30;98.29;101248.84;5069380;28;20115;-30
2022/11/14 08:03:56;;;;;;;58.42;24.02;;;;;;;7.03;99.23;101248.22;5069334;28;20474;-30
2022/11/14 08:06:21;;;;;;;68.22;23.98;;;;;;;7.20;100.00;101260.44;5068921;28;20036;-33
2022/11/14 08:08:46;;;;;;;55.60;23.33;;;;;;;7.18;100.00;101270.41;5069021;28;20157;-30
2022/11/14 08:11:12;;;;;;;58.38;23.50;;;;;;;7.79;98.44;101272.63;5050717;28;20111;-28
2022/11/14 08:13:37;;;;;;;55.85;24.88;;;;;;;7.69;96.82;101259.53;5051425;28;20024;-33
2022/11/14 08:16:07;;;;;;;63.92;24.75;;;;;;;7.93;96.29;101255.16;5069101;28;20043;-29
2022/11/14 08:18:33;;;;;;;54.33;23.60;;;;;;;7.93;96.41;101266.59;5068723;28;20056;-30
2022/11/14 08:20:58;;;;;;;71.45;27.65;;;;;;;8.19;95.36;101262.81;5068940;28;20042;-31
2022/11/14 08:23:23;;;;;;;60.83;28.13;;;;;;;7.97;95.52;101264.44;5069094;28;20369;-28
2022/11/14 08:25:49;;;;;;;63.50;29.50;;;;;;;7.73;98.80;101260.03;5067237;28;20462;-28
2022/11/14 08:28:15;;;;;;;62.33;28.73;;;;;;;7.77;97.81;101261.34;5050489;28;20028;-28
2022/11/14 08:30:40;;;;;;;66.97;29.33;;;;;;;8.00;98.72;101267.56;5069058;28;20032;-30
2022/11/14 08:33:06;;;;;;;61.22;29.10;;;;;;;8.09;97.37;101267.50;5068803;28;20029;-29
2022/11/14 08:35:32;;;;;;;56.30;28.13;;;;;;;8.16;97.66;101264.00;5069189;28;20028;-29
2022/11/14 08:37:59;;;;;;;61.15;26.13;;;;;;;8.62;94.75;101256.13;5068765;28;20507;-31
2022/11/14 08:40:24;;;;;;;64.60;28.52;;;;;;;8.76;94.78;101240.41;5068274;28;20029;-32
2022/11/14 08:42:50;;;;;;;63.15;28.35;;;;;;;8.67;96.83;101231.66;5068473;28;20052;-30
2022/11/14 08:45:15;;;;;;;55.50;26.85;;;;;;;8.93;96.71;101241.09;5050314;28;20624;-31
2022/11/14 08:47:41;;;;;;;60.35;28.38;;;;;;;8.94;95.50;101253.41;5066720;28;20059;-30
2022/11/14 08:50:07;;;;;;;62.25;28.42;;;;;;;8.70;97.86;101247.25;5068446;28;20162;-30
2022/11/14 08:52:32;;;;;;;57.15;28.60;;;;;;;8.57;98.24;101236.41;5068434;28;20028;-29
2022/11/14 08:54:57;;;;;;;57.53;28.55;;;;;;;8.57;97.61;101244.38;5068036;28;20435;-35
2022/11/14 08:57:23;;;;;;;61.00;29.77;;;;;;;8.98;97.74;101249.38;5068494;28;20032;-28
2022/11/14 08:59:48;;;;;;;61.72;27.50;;;;;;;8.78;97.77;101243.72;5068285;28;20071;-31
2022/11/14 09:02:14;;;;;;;62.80;30.48;;;;;;;9.34;96.34;101241.56;5050026;28;20392;-29
2022/11/14 09:04:39;;;;;;;60.75;29.15;;;;;;;9.58;94.78;101244.97;5068229;28;20049;-36
2022/11/14 09:07:05;;;;;;;61.28;30.13;;;;;;;9.70;93.31;101242.69;5067875;28;20028;-29
2022/11/14 09:09:31;;;;;;;64.55;29.40;;;;;;;9.81;94.58;101215.59;5049805;28;20024;-30
2022/11/14 09:11:56;;;;;;;60.78;30.38;;;;;;;9.99;95.33;101241.81;5068153;28;20036;-29
2022/11/14 09:14:22;;;;;;;59.25;29.50;;;;;;;10.31;92.07;101223.78;5068188;28;20028;-35
2022/11/14 09:16:48;;;;;;;57.55;31.35;;;;;;;10.29;93.40;101220.44;5068044;28;20112;-31
2022/11/14 09:19:13;;;;;;;58.10;30.30;;;;;;;10.62;92.52;101215.47;5068175;28;20032;-30
2022/11/14 09:21:39;;;;;;;62.38;29.85;;;;;;;10.91;94.36;101227.00;5067782;28;20032;-30
2022/11/14 09:24:05;;;;;;;59.33;30.17;;;;;;;10.89;92.89;101226.38;5067871;28;20031;-30
2022/11/14 09:26:30;;;;;;;59.15;31.65;;;;;;;11.01;90.69;101219.50;5067530;28;20539;-34
2022/11/14 09:28:55;;;;;;;50.88;27.73;;;;;;;11.32;88.61;101216.47;5067648;28;20027;-32
2022/11/14 09:31:21;;;;;;;54.50;29.30;;;;;;;11.70;87.43;101215.22;5066846;28;20539;-30
2022/11/14 09:33:46;;;;;;;57.13;30.52;;;;;;;11.51;87.90;101204.22;5067464;28;20628;-33
2022/11/14 09:36:17;;;;;;;56.17;31.55;;;;;;;11.57;88.37;101192.75;5067328;28;20085;-28
2022/11/14 09:38:43;;;;;;;54.95;32.72;;;;;;;11.86;88.13;101197.00;5065739;28;20036;-32
2022/11/14 09:41:25;;;;;;;51.30;28.45;;;;;;;12.02;85.23;101206.56;5067804;28;20490;-30
2022/11/14 09:44:09;;;;;;;59.25;34.05;;;;;;;12.13;84.38;101201.66;5049556;28;20029;-30
2022/11/14 09:46:43;;;;;;;63.80;35.30;;;;;;;12.18;85.53;101199.22;5066974;28;20032;-30
2022/11/14 09:49:26;;;;;;;53.30;30.38;;;;;;;12.30;82.60;101188.72;5067624;28;20447;-30
2022/11/14 09:52:02;;;;;;;61.05;31.30;;;;;;;12.26;83.71;101191.81;5067312;28;20032;-32
2022/11/14 09:54:39;;;;;;;59.15;30.88;;;;;;;12.25;84.09;101160.72;5049047;28;20172;-32
2022/11/14 09:57:14;;;;;;;49.37;28.77;;;;;;;12.55;85.14;101172.94;5049095;28;20040;-32
2022/11/14 09:59:39;;;;;;;48.13;27.80;;;;;;;13.07;80.96;101173.94;5049001;28;20029;-32
2022/11/14 10:02:23;;;;;;;48.10;27.50;;;;;;;12.95;82.95;101157.66;5067303;28;20020;-32
2022/11/14 10:05:08;;;;;;;45.25;26.05;;;;;;;13.27;81.46;101166.69;5049240;28;20460;-29
2022/11/14 10:08:06;;;;;;;56.35;30.90;;;;;;;13.55;79.73;101162.94;5048936;28;20499;-30
2022/11/14 10:11:11;;;;;;;39.50;24.27;;;;;;;13.79;77.25;101161.41;5038819;28;20047;-35
2022/11/14 10:13:51;;;;;;;49.47;29.45;;;;;;;13.53;78.15;101159.66;5067011;28;20141;-29
2022/11/14 10:16:49;;;;;;;44.75;26.92;;;;;;;13.78;79.01;101151.69;5048265;28;20415;-30
2022/11/14 10:19:24;;;;;;;38.92;24.63;;;;;;;14.42;76.33;101151.75;5066713;28;20048;-36
2022/11/14 10:22:23;;;;;;;41.35;25.17;;;;;;;14.65;74.35;101148.50;5066991;28;20059;-29
2022/11/14 10:25:00;;;;;;;38.38;24.42;;;;;;;14.72;75.32;101140.41;5048820;28;20027;-28
2022/11/14 10:27:41;;;;;;;40.95;24.67;;;;;;;14.81;75.58;101118.44;5066898;28;20036;-30
2022/11/14 10:30:14;;;;;;;42.65;24.83;;;;;;;14.99;72.52;101130.22;5048875;28;20032;-32
2022/11/14 10:32:59;;;;;;;43.22;25.42;;;;;;;15.34;71.67;101129.63;5048528;28;20028;-32
2022/11/14 10:35:36;;;;;;;40.30;23.85;;;;;;;15.07;71.03;101122.69;5048731;28;20392;-29
2022/11/14 10:38:10;;;;;;;38.13;23.50;;;;;;;15.31;73.98;101127.41;5048612;28;20129;-29
2022/11/14 10:40:46;;;;;;;38.17;23.75;;;;;;;15.48;72.42;101104.25;5048463;28;20067;-33
2022/11/14 10:43:26;;;;;;;36.20;23.27;;;;;;;16.04;69.63;101124.63;5048295;28;20029;-30
2022/11/14 10:45:57;;;;;;;37.70;23.98;;;;;;;16.34;69.38;101112.19;5066168;28;20033;-31
2022/11/14 10:48:34;;;;;;;32.85;19.70;;;;;;;16.23;68.77;101103.84;5048229;28;20059;-29
2022/11/14 10:51:06;;;;;;;30.67;19.35;;;;;;;16.26;68.36;101107.94;5048513;28;20056;-29
2022/11/14 10:53:55;;;;;;;28.80;19.35;;;;;;;16.70;64.04;101103.09;5066918;28;20107;-33
2022/11/14 10:56:21;;;;;;;29.27;19.08;;;;;;;16.78;64.64;101094.66;5048254;28;20032;-29
2022/11/14 10:58:46;;;;;;;27.20;17.00;;;;;;;16.91;62.22;101076.63;5066578;28;20466;-34
2022/11/14 11:01:36;;;;;;;30.20;18.92;;;;;;;17.00;63.43;101091.38;5066443;28;20039;-30
2022/11/14 11:04:21;;;;;;;24.35;16.08;;;;;;;17.56;62.04;101087.13;5066297;28;20726;-30
2022/11/14 11:06:51;;;;;;;26.70;16.92;;;;;;;16.85;64.25;101079.19;5066436;28;20028;-33
2022/11/14 11:12:06;;;;;;;26.08;16.63;;;;;;;17.49;62.98;101078.38;5066297;28;20081;-29
2022/11/14 11:14:32;;;;;;;27.95;17.23;;;;;;;17.27;64.44;101076.31;5047577;28;20488;-34
2022/11/14 11:17:10;;;;;;;26.42;17.25;;;;;;;17.24;65.06;101070.59;5048062;28;20094;-33
2022/11/14 11:19:36;;;;;;;27.20;18.55;;;;;;;17.67;64.25;101062.00;5048216;28;20466;-29